| time (UTC) | temp F | wind direction | speed knots | gust knots | rain 1hr in | rain 24hr in | rain mn in | humidity % | barometer mb |
| 20260905141054 | 65 | 0 | 0.0 | 0.0 | 0.01 | 0.36 | 0.10 | 71 | 1014.3 |
| 20260905140754 | 65 | 0 | 0.0 | 0.0 | 0.01 | 0.36 | 0.10 | 71 | 1014.3 |
| 20260905140555 | 65 | 0 | 0.0 | 0.0 | 0.01 | 0.36 | 0.10 | 71 | 1014.3 |
| 20260905140055 | 66 | 0 | 0.0 | 0.0 | 0.02 | 0.36 | 0.10 | 71 | 1014.2 |
| 20260905135658 | 66 | 0 | 0.0 | 0.0 | 0.02 | 0.36 | 0.10 | 71 | 1014.1 |
| 20260905135554 | 66 | 0 | 0.0 | 0.0 | 0.02 | 0.36 | 0.10 | 71 | 1014.1 |
| 20260905135208 | 65 | 0 | 0.0 | 0.0 | 0.02 | 0.36 | 0.10 | 71 | 1014.1 |
| 20260905135054 | 65 | 0 | 0.0 | 0.0 | 0.02 | 0.36 | 0.10 | 71 | 1014.1 |
| 20260905134702 | 65 | 0 | 0.0 | 0.0 | 0.02 | 0.36 | 0.10 | 72 | 1014.1 |
| 20260905134554 | 65 | 0 | 0.0 | 0.0 | 0.02 | 0.36 | 0.10 | 72 | 1014.1 |
| 20260905134129 | 65 | 0 | 0.0 | 0.0 | 0.01 | 0.35 | 0.09 | 71 | 1014.1 |
| 20260905134054 | 65 | 0 | 0.0 | 0.0 | 0.01 | 0.35 | 0.09 | 71 | 1014.1 |
| 20260905133652 | 65 | 0 | 0.0 | 0.0 | 0.01 | 0.35 | 0.09 | 71 | 1014.1 |
| 20260905133555 | 65 | 0 | 0.0 | 0.0 | 0.01 | 0.35 | 0.09 | 71 | 1014.1 |
| 20260905133310 | 65 | 0 | 0.0 | 0.0 | 0.01 | 0.35 | 0.09 | 71 | 1014.0 |
| 20260905133054 | 65 | 0 | 0.0 | 0.0 | 0.01 | 0.35 | 0.09 | 71 | 1014.0 |
| 20260905132554 | 65 | 0 | 0.0 | 0.0 | 0.01 | 0.35 | 0.09 | 71 | 1014.0 |
| 20260905132245 | 65 | 0 | 0.0 | 0.0 | 0.01 | 0.35 | 0.09 | 70 | 1014.0 |
| 20260905132054 | 65 | 0 | 0.0 | 0.0 | 0.01 | 0.35 | 0.09 | 70 | 1014.0 |
| 20260905131554 | 65 | 0 | 0.0 | 0.0 | 0.02 | 0.35 | 0.09 | 70 | 1014.1 |
| 20260905131150 | 65 | 0 | 0.0 | 0.0 | 0.02 | 0.35 | 0.09 | 71 | 1014.0 |
| 20260905131054 | 65 | 0 | 0.0 | 0.0 | 0.02 | 0.35 | 0.09 | 71 | 1014.0 |
| 20260905130706 | 66 | 0 | 0.0 | 0.0 | 0.02 | 0.35 | 0.09 | 71 | 1014.0 |
| 20260905130554 | 66 | 0 | 0.0 | 0.0 | 0.02 | 0.35 | 0.09 | 71 | 1014.0 |
| 20260905130235 | 66 | 0 | 0.0 | 0.0 | 0.01 | 0.34 | 0.08 | 70 | 1014.0 |
| 20260905130054 | 66 | 0 | 0.0 | 0.0 | 0.01 | 0.34 | 0.08 | 70 | 1014.0 |
| 20260905125743 | 66 | 0 | 0.0 | 0.0 | 0.01 | 0.34 | 0.08 | 74 | 1013.8 |
| 20260905125554 | 66 | 0 | 0.0 | 0.0 | 0.01 | 0.34 | 0.08 | 74 | 1013.8 |
| 20260905125054 | 66 | 0 | 0.0 | 0.0 | 0.01 | 0.34 | 0.08 | 77 | 1013.8 |
| 20260905124710 | 66 | 0 | 0.0 | 0.0 | 0.01 | 0.34 | 0.08 | 81 | 1013.9 |
| 20260905124554 | 66 | 0 | 0.0 | 0.0 | 0.01 | 0.34 | 0.08 | 81 | 1013.9 |
| 20260905123753 | 64 | 0 | 0.0 | 0.0 | 0.01 | 0.34 | 0.08 | 84 | 1013.8 |
| 20260905123642 | 64 | 0 | 0.0 | 0.0 | 0.01 | 0.34 | 0.08 | 84 | 1013.8 |
| 20260905123230 | 64 | 0 | 0.0 | 0.0 | 0.02 | 0.34 | 0.08 | 87 | 1013.9 |
| 20260905123142 | 64 | 0 | 0.0 | 0.0 | 0.02 | 0.34 | 0.08 | 87 | 1013.9 |
| 20260905122740 | 63 | 0 | 0.0 | 0.0 | 0.02 | 0.34 | 0.08 | 88 | 1013.9 |
| 20260905122642 | 63 | 0 | 0.0 | 0.0 | 0.02 | 0.34 | 0.08 | 88 | 1013.9 |
| 20260905122142 | 62 | 0 | 0.0 | 0.0 | 0.02 | 0.34 | 0.08 | 90 | 1013.9 |
| 20260905121754 | 61 | 0 | 0.0 | 0.0 | 0.01 | 0.33 | 0.07 | 91 | 1014.0 |
| 20260905121642 | 61 | 0 | 0.0 | 0.0 | 0.01 | 0.33 | 0.07 | 91 | 1014.0 |
| 20260905121318 | 61 | 0 | 0.0 | 0.0 | 0.01 | 0.33 | 0.07 | 92 | 1014.1 |
| 20260905121142 | 61 | 0 | 0.0 | 0.0 | 0.01 | 0.33 | 0.07 | 92 | 1014.1 |
| 20260905120909 | 60 | 0 | 0.0 | 0.0 | 0.01 | 0.33 | 0.07 | 92 | 1014.1 |
| 20260905120642 | 60 | 0 | 0.0 | 0.0 | 0.01 | 0.33 | 0.07 | 92 | 1014.1 |
| 20260905120228 | 60 | 0 | 0.0 | 0.0 | 0.01 | 0.33 | 0.07 | 93 | 1014.1 |
| 20260905120142 | 60 | 0 | 0.0 | 0.0 | 0.01 | 0.33 | 0.07 | 93 | 1014.1 |
| 20260905115751 | 59 | 0 | 0.0 | 0.0 | 0.01 | 0.33 | 0.07 | 92 | 1014.1 |
| 20260905115642 | 59 | 0 | 0.0 | 0.0 | 0.01 | 0.33 | 0.07 | 92 | 1014.1 |
| 20260905114820 | 58 | 0 | 0.0 | 0.0 | 0.01 | 0.33 | 0.07 | 91 | 1014.2 |
| 20260905114651 | 58 | 0 | 0.0 | 0.0 | 0.01 | 0.33 | 0.07 | 91 | 1014.2 |
| 20260905113844 | 58 | 0 | 0.0 | 0.0 | 0.01 | 0.33 | 0.07 | 90 | 1014.4 |
| 20260905113652 | 58 | 0 | 0.0 | 0.0 | 0.01 | 0.33 | 0.07 | 90 | 1014.4 |
| 20260905113249 | 58 | 0 | 0.0 | 0.0 | 0.00 | 0.32 | 0.06 | 90 | 1014.5 |
| 20260905113152 | 58 | 0 | 0.0 | 0.0 | 0.00 | 0.32 | 0.06 | 90 | 1014.5 |
| 20260905112801 | 58 | 0 | 0.0 | 0.0 | 0.00 | 0.32 | 0.06 | 89 | 1014.5 |
| 20260905112652 | 58 | 0 | 0.0 | 0.0 | 0.00 | 0.32 | 0.06 | 89 | 1014.5 |
| 20260905112320 | 58 | 0 | 0.0 | 0.0 | 0.00 | 0.32 | 0.06 | 87 | 1014.5 |
| 20260905112152 | 58 | 0 | 0.0 | 0.0 | 0.00 | 0.32 | 0.06 | 87 | 1014.5 |
| 20260905111812 | 58 | 0 | 0.0 | 0.0 | 0.00 | 0.32 | 0.06 | 84 | 1014.8 |
| 20260905111651 | 58 | 0 | 0.0 | 0.0 | 0.00 | 0.32 | 0.06 | 84 | 1014.8 |
| 20260905111151 | 61 | 0 | 0.0 | 0.0 | 0.00 | 0.32 | 0.06 | 78 | 1014.8 |
| 20260905110803 | 65 | 0 | 0.0 | 0.0 | 0.00 | 0.32 | 0.06 | 70 | 1014.6 |
| 20260905110627 | 65 | 0 | 0.0 | 0.0 | 0.00 | 0.32 | 0.06 | 70 | 1014.6 |
| 20260905110304 | 65 | 0 | 0.0 | 0.0 | 0.00 | 0.32 | 0.06 | 69 | 1014.1 |
| 20260905110127 | 65 | 0 | 0.0 | 0.0 | 0.00 | 0.32 | 0.06 | 69 | 1014.1 |
| 20260905105627 | 65 | 0 | 0.0 | 0.0 | 0.00 | 0.32 | 0.06 | 69 | 1014.1 |
| 20260905105227 | 65 | 0 | 0.0 | 0.0 | 0.00 | 0.32 | 0.06 | 68 | 1014.0 |
| 20260905105127 | 65 | 0 | 0.0 | 0.0 | 0.00 | 0.32 | 0.06 | 68 | 1014.0 |
| 20260905104627 | 65 | 0 | 0.0 | 0.0 | 0.00 | 0.32 | 0.06 | 68 | 1013.9 |
| 20260905104237 | 65 | 0 | 0.0 | 0.0 | 0.00 | 0.32 | 0.06 | 68 | 1014.1 |
| 20260905104127 | 65 | 0 | 0.0 | 0.0 | 0.00 | 0.32 | 0.06 | 68 | 1014.1 |
| 20260905103913 | 65 | 0 | 0.0 | 0.0 | 0.00 | 0.32 | 0.06 | 68 | 1014.1 |
| 20260905103627 | 65 | 0 | 0.0 | 0.0 | 0.00 | 0.32 | 0.06 | 68 | 1014.1 |
| 20260905103301 | 65 | 0 | 0.0 | 0.0 | 0.00 | 0.32 | 0.06 | 68 | 1014.1 |
| 20260905103127 | 65 | 0 | 0.0 | 0.0 | 0.00 | 0.32 | 0.06 | 68 | 1014.1 |
| 20260905102748 | 65 | 0 | 0.0 | 0.0 | 0.00 | 0.32 | 0.06 | 68 | 1014.0 |
| 20260905102627 | 65 | 0 | 0.0 | 0.0 | 0.00 | 0.32 | 0.06 | 68 | 1014.0 |
| 20260905102258 | 65 | 0 | 0.0 | 0.0 | 0.00 | 0.32 | 0.06 | 69 | 1013.9 |
| 20260905102127 | 65 | 0 | 0.0 | 0.0 | 0.00 | 0.32 | 0.06 | 69 | 1013.9 |
| 20260905101505 | 65 | 0 | 0.0 | 0.0 | 0.00 | 0.32 | 0.06 | 68 | 1013.8 |
| 20260905101345 | 65 | 0 | 0.0 | 0.0 | 0.00 | 0.32 | 0.06 | 68 | 1013.8 |
| 20260905100931 | 65 | 0 | 0.0 | 0.0 | 0.00 | 0.32 | 0.06 | 68 | 1013.8 |
| 20260905100845 | 65 | 0 | 0.0 | 0.0 | 0.00 | 0.32 | 0.06 | 68 | 1013.8 |
| 20260905100605 | 65 | 0 | 0.0 | 0.0 | 0.00 | 0.32 | 0.06 | 68 | 1013.8 |
| 20260905100345 | 65 | 0 | 0.0 | 0.0 | 0.00 | 0.32 | 0.06 | 68 | 1013.8 |
| 20260905100031 | 65 | 0 | 0.0 | 0.0 | 0.00 | 0.32 | 0.06 | 68 | 1013.8 |
| 20260905095845 | 65 | 0 | 0.0 | 0.0 | 0.00 | 0.32 | 0.06 | 68 | 1013.8 |
| 20260905095509 | 65 | 0 | 0.0 | 0.0 | 0.00 | 0.32 | 0.06 | 68 | 1013.9 |
| 20260905095346 | 65 | 0 | 0.0 | 0.0 | 0.00 | 0.32 | 0.06 | 68 | 1013.9 |
| 20260905095010 | 65 | 0 | 0.0 | 0.0 | 0.00 | 0.32 | 0.06 | 69 | 1013.8 |
| 20260905094845 | 65 | 0 | 0.0 | 0.0 | 0.00 | 0.32 | 0.06 | 69 | 1013.8 |
| 20260905094514 | 65 | 0 | 0.0 | 0.0 | 0.00 | 0.32 | 0.06 | 68 | 1013.8 |
| 20260905094345 | 65 | 0 | 0.0 | 0.0 | 0.00 | 0.32 | 0.06 | 68 | 1013.8 |
| 20260905094032 | 65 | 0 | 0.0 | 0.0 | 0.00 | 0.32 | 0.06 | 68 | 1013.8 |
| 20260905093846 | 65 | 0 | 0.0 | 0.0 | 0.00 | 0.32 | 0.06 | 68 | 1013.8 |
| 20260905093448 | 65 | 0 | 0.0 | 0.0 | 0.00 | 0.32 | 0.06 | 68 | 1013.8 |
| 20260905093345 | 65 | 0 | 0.0 | 0.0 | 0.00 | 0.32 | 0.06 | 68 | 1013.8 |
| 20260905092957 | 64 | 0 | 0.0 | 0.0 | 0.00 | 0.32 | 0.06 | 70 | 1013.8 |
| 20260905092845 | 64 | 0 | 0.0 | 0.0 | 0.00 | 0.32 | 0.06 | 70 | 1013.8 |
| 20260905092614 | 64 | 0 | 0.0 | 0.0 | 0.00 | 0.32 | 0.06 | 70 | 1013.8 |
| 20260905092345 | 64 | 0 | 0.0 | 0.0 | 0.00 | 0.32 | 0.06 | 70 | 1013.8 |
| 20260905092005 | 64 | 0 | 0.0 | 0.0 | 0.00 | 0.32 | 0.06 | 69 | 1013.8 |
| 20260905091845 | 64 | 0 | 0.0 | 0.0 | 0.00 | 0.32 | 0.06 | 69 | 1013.8 |
| 20260905091509 | 64 | 0 | 0.0 | 0.0 | 0.00 | 0.32 | 0.06 | 71 | 1013.8 |
| 20260905091345 | 64 | 0 | 0.0 | 0.0 | 0.00 | 0.32 | 0.06 | 71 | 1013.8 |
| 20260905090938 | 64 | 0 | 0.0 | 0.0 | 0.00 | 0.32 | 0.06 | 70 | 1013.8 |
| 20260905090845 | 64 | 0 | 0.0 | 0.0 | 0.00 | 0.32 | 0.06 | 70 | 1013.8 |
| 20260905090511 | 64 | 0 | 0.0 | 0.0 | 0.00 | 0.32 | 0.06 | 71 | 1013.8 |
| 20260905090345 | 64 | 0 | 0.0 | 0.0 | 0.00 | 0.32 | 0.06 | 71 | 1013.8 |
| 20260905085845 | 64 | 0 | 0.0 | 0.0 | 0.00 | 0.32 | 0.06 | 71 | 1013.7 |
| 20260905085346 | 64 | 0 | 0.0 | 0.0 | 0.00 | 0.32 | 0.06 | 71 | 1013.6 |
| 20260905084959 | 64 | 0 | 0.0 | 0.0 | 0.00 | 0.32 | 0.06 | 74 | 1013.7 |
| 20260905084845 | 64 | 0 | 0.0 | 0.0 | 0.00 | 0.32 | 0.06 | 74 | 1013.7 |
| 20260905084513 | 64 | 0 | 0.0 | 0.0 | 0.00 | 0.32 | 0.06 | 73 | 1013.6 |
| 20260905084345 | 64 | 0 | 0.0 | 0.0 | 0.00 | 0.32 | 0.06 | 73 | 1013.6 |
| 20260905084004 | 64 | 0 | 0.0 | 0.0 | 0.00 | 0.32 | 0.06 | 74 | 1013.5 |
| 20260905083845 | 64 | 0 | 0.0 | 0.0 | 0.00 | 0.32 | 0.06 | 74 | 1013.5 |
| 20260905083458 | 63 | 0 | 0.0 | 0.0 | 0.00 | 0.32 | 0.06 | 73 | 1013.4 |
| 20260905083345 | 63 | 0 | 0.0 | 0.0 | 0.00 | 0.32 | 0.06 | 73 | 1013.4 |
| 20260905082336 | 63 | 0 | 0.0 | 0.0 | 0.00 | 0.32 | 0.06 | 75 | 1013.3 |
| 20260905082154 | 63 | 0 | 0.0 | 0.0 | 0.00 | 0.32 | 0.06 | 75 | 1013.3 |
| 20260905081855 | 63 | 0 | 0.0 | 0.0 | 0.00 | 0.32 | 0.06 | 76 | 1013.4 |
| 20260905081654 | 63 | 0 | 0.0 | 0.0 | 0.00 | 0.32 | 0.06 | 76 | 1013.4 |
| 20260905081439 | 62 | 0 | 0.0 | 0.0 | 0.01 | 0.32 | 0.06 | 77 | 1013.3 |
| 20260905081154 | 62 | 0 | 0.0 | 0.0 | 0.01 | 0.32 | 0.06 | 77 | 1013.3 |
| 20260905080842 | 62 | 0 | 0.0 | 0.0 | 0.01 | 0.32 | 0.06 | 77 | 1013.3 |
| 20260905080654 | 62 | 0 | 0.0 | 0.0 | 0.01 | 0.32 | 0.06 | 77 | 1013.3 |
| 20260905080249 | 62 | 0 | 0.0 | 0.0 | 0.01 | 0.32 | 0.06 | 76 | 1013.2 |
| 20260905080155 | 62 | 0 | 0.0 | 0.0 | 0.01 | 0.32 | 0.06 | 76 | 1013.2 |
| 20260905075813 | 62 | 0 | 0.0 | 0.0 | 0.01 | 0.32 | 0.06 | 77 | 1013.1 |
| 20260905075654 | 62 | 0 | 0.0 | 0.0 | 0.01 | 0.32 | 0.06 | 77 | 1013.1 |
| 20260905075431 | 62 | 0 | 0.0 | 0.0 | 0.01 | 0.32 | 0.06 | 77 | 1013.1 |
| 20260905075154 | 62 | 0 | 0.0 | 0.0 | 0.01 | 0.32 | 0.06 | 77 | 1013.1 |
| 20260905074917 | 62 | 0 | 0.0 | 0.0 | 0.01 | 0.32 | 0.06 | 79 | 1013.0 |
| 20260905074654 | 62 | 0 | 0.0 | 0.0 | 0.01 | 0.32 | 0.06 | 79 | 1013.0 |
| 20260905074014 | 61 | 0 | 0.0 | 0.0 | 0.01 | 0.32 | 0.06 | 80 | 1012.9 |
| 20260905073817 | 61 | 0 | 0.0 | 0.0 | 0.01 | 0.32 | 0.06 | 80 | 1012.9 |
| 20260905073509 | 61 | 0 | 0.0 | 0.0 | 0.02 | 0.32 | 0.06 | 81 | 1013.0 |
| 20260905073318 | 61 | 0 | 0.0 | 0.0 | 0.02 | 0.32 | 0.06 | 81 | 1013.0 |
| 20260905072938 | 61 | 0 | 0.0 | 0.0 | 0.02 | 0.32 | 0.06 | 82 | 1012.9 |
| 20260905072817 | 61 | 0 | 0.0 | 0.0 | 0.02 | 0.32 | 0.06 | 82 | 1012.9 |
| 20260905072447 | 61 | 0 | 0.0 | 0.0 | 0.02 | 0.32 | 0.06 | 83 | 1012.9 |
| 20260905072317 | 61 | 0 | 0.0 | 0.0 | 0.02 | 0.32 | 0.06 | 83 | 1012.9 |
| 20260905071914 | 61 | 0 | 0.0 | 0.0 | 0.02 | 0.32 | 0.06 | 84 | 1012.9 |
| 20260905071817 | 61 | 0 | 0.0 | 0.0 | 0.02 | 0.32 | 0.06 | 84 | 1012.9 |
| 20260905071440 | 60 | 0 | 0.0 | 0.0 | 0.01 | 0.31 | 0.05 | 85 | 1012.8 |
| 20260905071317 | 60 | 0 | 0.0 | 0.0 | 0.01 | 0.31 | 0.05 | 85 | 1012.8 |
| 20260905070920 | 60 | 0 | 0.0 | 0.0 | 0.01 | 0.31 | 0.05 | 88 | 1012.7 |
| 20260905070817 | 60 | 0 | 0.0 | 0.0 | 0.01 | 0.31 | 0.05 | 88 | 1012.7 |
| 20260905070455 | 60 | 0 | 0.0 | 0.0 | 0.01 | 0.31 | 0.05 | 88 | 1012.6 |
| 20260905070318 | 60 | 0 | 0.0 | 0.0 | 0.01 | 0.31 | 0.05 | 88 | 1012.6 |
| 20260905065433 | 59 | 0 | 0.0 | 0.0 | 0.01 | 0.31 | 0.05 | 90 | 1012.6 |
| 20260905065317 | 59 | 0 | 0.0 | 0.0 | 0.01 | 0.31 | 0.05 | 90 | 1012.6 |
| 20260905065031 | 59 | 0 | 0.0 | 0.0 | 0.01 | 0.31 | 0.05 | 90 | 1012.6 |
| 20260905064817 | 59 | 0 | 0.0 | 0.0 | 0.01 | 0.31 | 0.05 | 90 | 1012.6 |
| 20260905064206 | 59 | 0 | 0.0 | 0.0 | 0.01 | 0.31 | 0.05 | 90 | 1012.6 |
| 20260905064057 | 59 | 0 | 0.0 | 0.0 | 0.01 | 0.31 | 0.05 | 90 | 1012.6 |
| 20260905063328 | 59 | 0 | 0.0 | 0.0 | 0.01 | 0.31 | 0.05 | 90 | 1012.5 |
| 20260905063055 | 59 | 0 | 0.0 | 0.0 | 0.00 | 0.30 | 0.04 | 91 | 1012.5 |
| 20260905062828 | 59 | 0 | 0.0 | 0.0 | 0.00 | 0.30 | 0.04 | 91 | 1012.5 |
| 20260905062428 | 59 | 0 | 0.0 | 0.0 | 0.00 | 0.30 | 0.04 | 90 | 1012.3 |
| 20260905062328 | 59 | 0 | 0.0 | 0.0 | 0.00 | 0.30 | 0.04 | 90 | 1012.3 |
| 20260905061828 | 59 | 0 | 0.0 | 0.0 | 0.00 | 0.30 | 0.04 | 90 | 1012.3 |
| 20260905061511 | 59 | 0 | 0.0 | 0.0 | 0.00 | 0.30 | 0.04 | 88 | 1012.3 |
| 20260905061328 | 59 | 0 | 0.0 | 0.0 | 0.00 | 0.30 | 0.04 | 88 | 1012.3 |
| 20260905060957 | 59 | 0 | 0.0 | 0.0 | 0.00 | 0.30 | 0.04 | 87 | 1012.3 |
| 20260905060828 | 59 | 0 | 0.0 | 0.0 | 0.00 | 0.30 | 0.04 | 87 | 1012.3 |
| 20260905060445 | 59 | 0 | 0.0 | 0.0 | 0.00 | 0.30 | 0.04 | 87 | 1012.2 |
| 20260905060328 | 59 | 0 | 0.0 | 0.0 | 0.00 | 0.30 | 0.04 | 87 | 1012.2 |
| 20260905055940 | 60 | 0 | 0.0 | 0.0 | 0.00 | 0.30 | 0.04 | 87 | 1012.3 |
| 20260905055828 | 60 | 0 | 0.0 | 0.0 | 0.00 | 0.30 | 0.04 | 87 | 1012.3 |
| 20260905055443 | 60 | 0 | 0.0 | 0.0 | 0.00 | 0.30 | 0.04 | 87 | 1012.1 |
| 20260905055328 | 60 | 0 | 0.0 | 0.0 | 0.00 | 0.30 | 0.04 | 87 | 1012.1 |
| 20260905055037 | 60 | 0 | 0.0 | 0.0 | 0.00 | 0.30 | 0.04 | 87 | 1012.1 |
| 20260905054828 | 60 | 0 | 0.0 | 0.0 | 0.00 | 0.30 | 0.04 | 87 | 1012.1 |
| 20260905054100 | 59 | 0 | 0.0 | 0.0 | 0.00 | 0.30 | 0.04 | 88 | 1012.0 |
| 20260905053600 | 59 | 0 | 0.0 | 0.0 | 0.00 | 0.30 | 0.04 | 88 | 1011.8 |
| 20260905053222 | 59 | 0 | 0.0 | 0.0 | 0.00 | 0.30 | 0.04 | 88 | 1011.8 |
| 20260905053100 | 59 | 0 | 0.0 | 0.0 | 0.00 | 0.30 | 0.04 | 88 | 1011.8 |
| 20260905052941 | 59 | 0 | 0.0 | 0.0 | 0.00 | 0.30 | 0.04 | 88 | 1011.7 |
| 20260905052600 | 59 | 0 | 0.0 | 0.0 | 0.00 | 0.30 | 0.04 | 88 | 1011.7 |
| 20260905052154 | 59 | 0 | 0.0 | 0.0 | 0.00 | 0.30 | 0.04 | 88 | 1011.7 |
| 20260905052100 | 59 | 0 | 0.0 | 0.0 | 0.00 | 0.30 | 0.04 | 88 | 1011.7 |
| 20260905051600 | 59 | 0 | 0.0 | 0.0 | 0.00 | 0.30 | 0.04 | 88 | 1011.6 |
| 20260905051223 | 59 | 0 | 0.0 | 0.0 | 0.00 | 0.30 | 0.04 | 88 | 1011.6 |
| 20260905051100 | 59 | 0 | 0.0 | 0.0 | 0.00 | 0.30 | 0.04 | 88 | 1011.6 |
| 20260905050710 | 59 | 0 | 0.0 | 0.0 | 0.00 | 0.30 | 0.04 | 88 | 1011.6 |
| 20260905050600 | 59 | 0 | 0.0 | 0.0 | 0.00 | 0.30 | 0.04 | 88 | 1011.6 |
| 20260905050206 | 59 | 0 | 0.0 | 0.0 | 0.00 | 0.30 | 0.04 | 88 | 1011.5 |
| 20260905050100 | 59 | 0 | 0.0 | 0.0 | 0.00 | 0.30 | 0.04 | 88 | 1011.5 |
| 20260905045711 | 59 | 0 | 0.0 | 0.0 | 0.00 | 0.30 | 0.04 | 88 | 1011.5 |
| 20260905045559 | 59 | 0 | 0.0 | 0.0 | 0.00 | 0.30 | 0.04 | 88 | 1011.5 |
| 20260905045211 | 59 | 0 | 0.0 | 0.0 | 0.00 | 0.30 | 0.04 | 88 | 1011.4 |
| 20260905045100 | 59 | 0 | 0.0 | 0.0 | 0.00 | 0.30 | 0.04 | 88 | 1011.4 |
| 20260905044600 | 59 | 0 | 0.0 | 0.0 | 0.00 | 0.30 | 0.04 | 88 | 1011.4 |
| 20260905044151 | 59 | 0 | 0.0 | 0.0 | 0.00 | 0.30 | 0.04 | 88 | 1011.4 |
| 20260905044100 | 59 | 0 | 0.0 | 0.0 | 0.00 | 0.30 | 0.04 | 88 | 1011.4 |
| 20260905043748 | 59 | 0 | 0.0 | 0.0 | 0.00 | 0.30 | 0.04 | 89 | 1011.2 |
| 20260905043600 | 59 | 0 | 0.0 | 0.0 | 0.00 | 0.30 | 0.04 | 89 | 1011.2 |
| 20260905043219 | 59 | 0 | 0.0 | 0.0 | 0.00 | 0.30 | 0.04 | 89 | 1011.1 |
| 20260905043059 | 59 | 0 | 0.0 | 0.0 | 0.00 | 0.30 | 0.04 | 89 | 1011.1 |
| 20260905042744 | 59 | 0 | 0.0 | 0.0 | 0.00 | 0.30 | 0.04 | 89 | 1011.1 |
| 20260905042559 | 59 | 0 | 0.0 | 0.0 | 0.00 | 0.30 | 0.04 | 89 | 1011.1 |
| 20260905042232 | 59 | 0 | 0.0 | 0.0 | 0.00 | 0.30 | 0.04 | 89 | 1011.0 |
| 20260905042059 | 59 | 0 | 0.0 | 0.0 | 0.00 | 0.30 | 0.04 | 89 | 1011.0 |
| 20260905041810 | 59 | 0 | 0.0 | 0.0 | 0.00 | 0.30 | 0.04 | 89 | 1011.0 |
| 20260905041600 | 59 | 0 | 0.0 | 0.0 | 0.00 | 0.30 | 0.04 | 89 | 1011.0 |
| 20260905040939 | 59 | 0 | 0.0 | 0.0 | 0.00 | 0.30 | 0.04 | 89 | 1010.9 |
| 20260905040848 | 59 | 0 | 0.0 | 0.0 | 0.00 | 0.30 | 0.04 | 89 | 1010.9 |
| 20260905040559 | 59 | 0 | 0.0 | 0.0 | 0.00 | 0.30 | 0.04 | 89 | 1010.9 |
| 20260905040348 | 59 | 0 | 0.0 | 0.0 | 0.00 | 0.30 | 0.04 | 89 | 1010.9 |
| 20260905040037 | 59 | 0 | 0.0 | 0.0 | 0.00 | 0.30 | 0.04 | 89 | 1010.8 |
| 20260905035848 | 59 | 0 | 0.0 | 0.0 | 0.00 | 0.30 | 0.04 | 89 | 1010.8 |
| 20260905035500 | 59 | 0 | 0.0 | 0.0 | 0.00 | 0.30 | 0.04 | 89 | 1010.7 |
| 20260905035348 | 59 | 0 | 0.0 | 0.0 | 0.00 | 0.30 | 0.04 | 89 | 1010.7 |
| 20260905035108 | 59 | 0 | 0.0 | 0.0 | 0.00 | 0.30 | 0.04 | 89 | 1010.7 |
| 20260905034848 | 59 | 0 | 0.0 | 0.0 | 0.00 | 0.30 | 0.04 | 89 | 1010.7 |
| 20260905034348 | 59 | 0 | 0.0 | 0.0 | 0.00 | 0.30 | 0.04 | 89 | 1010.6 |
| 20260905034023 | 60 | 0 | 0.0 | 0.0 | 0.00 | 0.30 | 0.04 | 89 | 1010.6 |
| 20260905033848 | 60 | 0 | 0.0 | 0.0 | 0.00 | 0.30 | 0.04 | 89 | 1010.6 |
| 20260905033526 | 60 | 0 | 0.0 | 0.0 | 0.00 | 0.30 | 0.04 | 89 | 1010.5 |
| 20260905033348 | 60 | 0 | 0.0 | 0.0 | 0.00 | 0.30 | 0.04 | 89 | 1010.5 |
| 20260905032901 | 60 | 0 | 0.0 | 0.0 | 0.00 | 0.30 | 0.04 | 89 | 1010.5 |
| 20260905032616 | 60 | 0 | 0.0 | 0.0 | 0.00 | 0.30 | 0.04 | 89 | 1010.5 |
| 20260905032334 | 60 | 0 | 0.0 | 0.0 | 0.00 | 0.30 | 0.04 | 89 | 1010.5 |
| 20260905032116 | 60 | 0 | 0.0 | 0.0 | 0.00 | 0.30 | 0.04 | 89 | 1010.5 |
| 20260905031917 | 60 | 0 | 0.0 | 0.0 | 0.00 | 0.30 | 0.04 | 88 | 1010.4 |
| 20260905031616 | 60 | 0 | 0.0 | 0.0 | 0.00 | 0.30 | 0.04 | 88 | 1010.4 |
| 20260905031358 | 60 | 0 | 0.0 | 0.0 | 0.00 | 0.30 | 0.04 | 88 | 1010.3 |
| 20260905031117 | 60 | 0 | 0.0 | 0.0 | 0.00 | 0.30 | 0.04 | 88 | 1010.3 |
| 20260905030911 | 60 | 0 | 0.0 | 0.0 | 0.00 | 0.30 | 0.04 | 89 | 1010.2 |
| 20260905030616 | 60 | 0 | 0.0 | 0.0 | 0.00 | 0.30 | 0.04 | 89 | 1010.2 |
| 20260905030250 | 60 | 0 | 0.0 | 0.0 | 0.00 | 0.30 | 0.04 | 89 | 1010.2 |
| 20260905030116 | 60 | 0 | 0.0 | 0.0 | 0.00 | 0.30 | 0.04 | 89 | 1010.2 |
| 20260905025533 | 60 | 0 | 0.0 | 0.0 | 0.00 | 0.30 | 0.04 | 89 | 1010.0 |
| 20260905025349 | 60 | 0 | 0.0 | 0.0 | 0.00 | 0.30 | 0.04 | 89 | 1010.0 |
| 20260905025058 | 60 | 0 | 0.0 | 0.0 | 0.00 | 0.30 | 0.04 | 89 | 1009.9 |
| 20260905024849 | 60 | 0 | 0.0 | 0.0 | 0.00 | 0.30 | 0.04 | 89 | 1009.9 |
| 20260905024708 | 60 | 0 | 0.0 | 0.0 | 0.00 | 0.30 | 0.04 | 89 | 1009.9 |
| 20260905024349 | 60 | 0 | 0.0 | 0.0 | 0.00 | 0.30 | 0.04 | 89 | 1009.9 |
| 20260905024023 | 60 | 0 | 0.0 | 0.0 | 0.00 | 0.30 | 0.04 | 88 | 1009.9 |
| 20260905023849 | 60 | 0 | 0.0 | 0.0 | 0.00 | 0.30 | 0.04 | 88 | 1009.9 |
| 20260905023457 | 61 | 0 | 0.0 | 0.0 | 0.00 | 0.30 | 0.04 | 88 | 1009.8 |
| 20260905023349 | 61 | 0 | 0.0 | 0.0 | 0.00 | 0.30 | 0.04 | 88 | 1009.8 |
| 20260905023108 | 61 | 0 | 0.0 | 0.0 | 0.00 | 0.30 | 0.04 | 88 | 1009.9 |
| 20260905022849 | 61 | 0 | 0.0 | 0.0 | 0.00 | 0.30 | 0.04 | 88 | 1009.9 |
| 20260905022349 | 61 | 0 | 0.0 | 0.0 | 0.00 | 0.30 | 0.04 | 88 | 1009.9 |
| 20260905022010 | 61 | 0 | 0.0 | 0.0 | 0.00 | 0.30 | 0.04 | 87 | 1009.9 |
| 20260905021849 | 61 | 0 | 0.0 | 0.0 | 0.00 | 0.30 | 0.04 | 87 | 1009.9 |
| 20260905021534 | 61 | 0 | 0.0 | 0.0 | 0.00 | 0.30 | 0.04 | 86 | 1009.9 |
| 20260905021349 | 61 | 0 | 0.0 | 0.0 | 0.00 | 0.30 | 0.04 | 86 | 1009.9 |
| 20260905020956 | 61 | 0 | 0.0 | 0.0 | 0.00 | 0.30 | 0.04 | 86 | 1009.9 |
| 20260905020849 | 61 | 0 | 0.0 | 0.0 | 0.00 | 0.30 | 0.04 | 86 | 1009.9 |
| 20260905020619 | 61 | 0 | 0.0 | 0.0 | 0.00 | 0.30 | 0.04 | 86 | 1009.9 |
| 20260905020349 | 61 | 0 | 0.0 | 0.0 | 0.00 | 0.30 | 0.04 | 86 | 1009.9 |
| 20260905020012 | 61 | 0 | 0.0 | 0.0 | 0.00 | 0.30 | 0.04 | 85 | 1009.7 |
| 20260905015643 | 61 | 0 | 0.0 | 0.0 | 0.00 | 0.30 | 0.04 | 85 | 1009.7 |
| 20260905015351 | 61 | 0 | 0.0 | 0.0 | 0.00 | 0.30 | 0.04 | 85 | 1009.7 |
| 20260905015143 | 61 | 0 | 0.0 | 0.0 | 0.00 | 0.30 | 0.04 | 85 | 1009.7 |
| 20260905015032 | 61 | 0 | 0.0 | 0.0 | 0.00 | 0.30 | 0.04 | 86 | 1009.6 |
| 20260905014643 | 61 | 0 | 0.0 | 0.0 | 0.00 | 0.30 | 0.04 | 86 | 1009.6 |
| 20260905014216 | 61 | 0 | 0.0 | 0.0 | 0.00 | 0.30 | 0.04 | 87 | 1009.5 |
| 20260905014143 | 61 | 0 | 0.0 | 0.0 | 0.00 | 0.30 | 0.04 | 87 | 1009.5 |
| 20260905013814 | 61 | 0 | 0.0 | 0.0 | 0.00 | 0.30 | 0.04 | 87 | 1009.5 |
| 20260905013643 | 61 | 0 | 0.0 | 0.0 | 0.00 | 0.30 | 0.04 | 87 | 1009.5 |
| 20260905013335 | 61 | 0 | 0.0 | 0.0 | 0.01 | 0.30 | 0.04 | 87 | 1009.4 |
| 20260905013143 | 61 | 0 | 0.0 | 0.0 | 0.01 | 0.30 | 0.04 | 87 | 1009.4 |
| 20260905013031 | 61 | 0 | 0.0 | 0.0 | 0.01 | 0.30 | 0.04 | 88 | 1009.4 |
| 20260905012643 | 61 | 0 | 0.0 | 0.0 | 0.01 | 0.30 | 0.04 | 88 | 1009.4 |
| 20260905012320 | 62 | 0 | 0.0 | 0.0 | 0.01 | 0.30 | 0.04 | 88 | 1009.4 |
| 20260905012143 | 62 | 0 | 0.0 | 0.0 | 0.01 | 0.30 | 0.04 | 88 | 1009.4 |
| 20260905011511 | 62 | 0 | 0.0 | 0.0 | 0.01 | 0.30 | 0.04 | 88 | 1009.2 |
| 20260905011412 | 62 | 0 | 0.0 | 0.0 | 0.01 | 0.30 | 0.04 | 88 | 1009.2 |
| 20260905011009 | 62 | 0 | 0.0 | 0.0 | 0.01 | 0.30 | 0.04 | 88 | 1009.3 |
| 20260905010912 | 62 | 0 | 0.0 | 0.0 | 0.01 | 0.30 | 0.04 | 88 | 1009.3 |
| 20260905010621 | 62 | 0 | 0.0 | 0.0 | 0.01 | 0.30 | 0.04 | 88 | 1009.3 |
| 20260905010412 | 62 | 0 | 0.0 | 0.0 | 0.01 | 0.30 | 0.04 | 88 | 1009.3 |
| 20260905010117 | 62 | 0 | 0.0 | 0.0 | 0.01 | 0.30 | 0.04 | 88 | 1009.4 |
| 20260905005912 | 62 | 0 | 0.0 | 0.0 | 0.01 | 0.30 | 0.04 | 88 | 1009.4 |
| 20260905005415 | 62 | 0 | 0.0 | 0.0 | 0.02 | 0.30 | 0.04 | 88 | 1009.2 |
| 20260905005157 | 62 | 0 | 0.0 | 0.0 | 0.02 | 0.30 | 0.04 | 88 | 1009.2 |
| 20260905005006 | 62 | 0 | 0.0 | 0.0 | 0.02 | 0.30 | 0.04 | 88 | 1009.2 |
| 20260905004657 | 62 | 0 | 0.0 | 0.0 | 0.02 | 0.30 | 0.04 | 88 | 1009.2 |
| 20260905004341 | 62 | 0 | 0.0 | 0.0 | 0.02 | 0.30 | 0.04 | 88 | 1009.1 |
| 20260905004157 | 62 | 0 | 0.0 | 0.0 | 0.02 | 0.30 | 0.04 | 88 | 1009.1 |
| 20260905003901 | 62 | 0 | 0.0 | 0.0 | 0.02 | 0.30 | 0.04 | 88 | 1009.0 |
| 20260905003657 | 62 | 0 | 0.0 | 0.0 | 0.02 | 0.30 | 0.04 | 88 | 1009.0 |
| 20260905003328 | 62 | 0 | 0.0 | 0.0 | 0.02 | 0.30 | 0.04 | 88 | 1008.8 |
| 20260905003157 | 62 | 0 | 0.0 | 0.0 | 0.02 | 0.30 | 0.04 | 88 | 1008.8 |
| 20260905002856 | 62 | 0 | 0.0 | 0.0 | 0.01 | 0.29 | 0.03 | 88 | 1008.8 |
| 20260905002657 | 62 | 0 | 0.0 | 0.0 | 0.01 | 0.29 | 0.03 | 88 | 1008.8 |
| 20260905002157 | 62 | 0 | 0.0 | 0.0 | 0.01 | 0.29 | 0.03 | 89 | 1008.5 |
| 20260905001913 | 62 | 0 | 0.0 | 0.0 | 0.01 | 0.29 | 0.03 | 89 | 1008.3 |
| 20260905001657 | 62 | 0 | 0.0 | 0.0 | 0.01 | 0.29 | 0.03 | 89 | 1008.3 |
| 20260905001235 | 62 | 0 | 0.0 | 0.0 | 0.01 | 0.29 | 0.03 | 90 | 1008.4 |
| 20260905001156 | 62 | 0 | 0.0 | 0.0 | 0.01 | 0.29 | 0.03 | 90 | 1008.4 |
| 20260905000817 | 62 | 0 | 0.0 | 0.0 | 0.02 | 0.29 | 0.03 | 90 | 1008.4 |
| 20260905000658 | 62 | 0 | 0.0 | 0.0 | 0.02 | 0.29 | 0.03 | 90 | 1008.4 |
| 20260905000359 | 62 | 0 | 0.0 | 0.0 | 0.02 | 0.29 | 0.03 | 90 | 1008.5 |
| 20260905000156 | 62 | 0 | 0.0 | 0.0 | 0.02 | 0.29 | 0.03 | 90 | 1008.5 |
| 20260904235844 | 62 | 0 | 0.0 | 0.0 | 0.01 | 0.28 | 0.02 | 90 | 1008.5 |
| 20260904235656 | 62 | 0 | 0.0 | 0.0 | 0.01 | 0.28 | 0.02 | 90 | 1008.5 |
| 20260904235355 | 62 | 0 | 0.0 | 0.0 | 0.01 | 0.28 | 0.02 | 91 | 1008.4 |
| 20260904235157 | 62 | 0 | 0.0 | 0.0 | 0.01 | 0.28 | 0.02 | 91 | 1008.4 |
| 20260904234916 | 62 | 0 | 0.0 | 0.0 | 0.01 | 0.28 | 0.02 | 91 | 1008.5 |
| 20260904234656 | 62 | 0 | 0.0 | 0.0 | 0.01 | 0.28 | 0.02 | 91 | 1008.5 |
| 20260904234259 | 62 | 0 | 0.0 | 0.0 | 0.01 | 0.28 | 0.02 | 91 | 1008.5 |
| 20260904234156 | 62 | 0 | 0.0 | 0.0 | 0.01 | 0.28 | 0.02 | 91 | 1008.5 |
| 20260904233828 | 62 | 0 | 0.0 | 0.0 | 0.02 | 0.28 | 0.02 | 91 | 1008.4 |
| 20260904233656 | 62 | 0 | 0.0 | 0.0 | 0.02 | 0.28 | 0.02 | 91 | 1008.4 |
| 20260904233409 | 62 | 0 | 0.0 | 0.0 | 0.02 | 0.28 | 0.02 | 91 | 1008.3 |
| 20260904233157 | 62 | 0 | 0.0 | 0.0 | 0.02 | 0.28 | 0.02 | 91 | 1008.3 |
| 20260904233107 | 62 | 0 | 0.0 | 0.0 | 0.02 | 0.28 | 0.02 | 91 | 1008.2 |
| 20260904232656 | 62 | 0 | 0.0 | 0.0 | 0.02 | 0.28 | 0.02 | 91 | 1008.2 |
| 20260904232325 | 62 | 0 | 0.0 | 0.0 | 0.02 | 0.28 | 0.02 | 91 | 1008.2 |
| 20260904232156 | 62 | 0 | 0.0 | 0.0 | 0.02 | 0.28 | 0.02 | 91 | 1008.2 |
| 20260904231851 | 62 | 0 | 0.0 | 0.0 | 0.02 | 0.28 | 0.02 | 91 | 1008.1 |
| 20260904231656 | 62 | 0 | 0.0 | 0.0 | 0.02 | 0.28 | 0.02 | 91 | 1008.1 |
| 20260904231157 | 62 | 0 | 0.0 | 0.0 | 0.02 | 0.28 | 0.02 | 92 | 1007.9 |
| 20260904230919 | 62 | 0 | 0.0 | 0.0 | 0.01 | 0.27 | 0.01 | 92 | 1007.8 |
| 20260904230658 | 62 | 0 | 0.0 | 0.0 | 0.01 | 0.27 | 0.01 | 92 | 1007.8 |
| 20260904225723 | 62 | 0 | 0.0 | 0.0 | 0.02 | 0.27 | 0.01 | 91 | 1007.6 |
| 20260904225557 | 62 | 0 | 0.0 | 0.0 | 0.02 | 0.27 | 0.01 | 91 | 1007.6 |
| 20260904225245 | 62 | 0 | 0.0 | 0.0 | 0.02 | 0.27 | 0.01 | 91 | 1007.6 |
| 20260904225057 | 62 | 0 | 0.0 | 0.0 | 0.02 | 0.27 | 0.01 | 91 | 1007.6 |
| 20260904224557 | 62 | 0 | 0.0 | 0.0 | 0.02 | 0.27 | 0.01 | 91 | 1007.7 |
| 20260904224057 | 62 | 0 | 0.0 | 0.0 | 0.02 | 0.27 | 0.01 | 91 | 1007.6 |
| 20260904223557 | 62 | 0 | 0.0 | 0.0 | 0.01 | 0.26 | 0.00 | 91 | 1007.7 |
| 20260904223206 | 62 | 0 | 0.0 | 0.0 | 0.02 | 0.26 | 0.00 | 91 | 1007.5 |
| 20260904223057 | 62 | 0 | 0.0 | 0.0 | 0.02 | 0.26 | 0.00 | 91 | 1007.5 |
| 20260904222836 | 62 | 0 | 0.0 | 0.0 | 0.02 | 0.26 | 0.00 | 91 | 1007.5 |
| 20260904222557 | 62 | 0 | 0.0 | 0.0 | 0.02 | 0.26 | 0.00 | 91 | 1007.5 |
| 20260904222154 | 62 | 0 | 0.0 | 0.0 | 0.02 | 0.26 | 0.00 | 91 | 1007.5 |
| 20260904222057 | 62 | 0 | 0.0 | 0.0 | 0.02 | 0.26 | 0.00 | 91 | 1007.5 |
| 20260904221934 | 62 | 0 | 0.0 | 0.0 | 0.02 | 0.26 | 0.00 | 90 | 1007.4 |
| 20260904221557 | 62 | 0 | 0.0 | 0.0 | 0.02 | 0.26 | 0.00 | 90 | 1007.4 |
| 20260904221155 | 62 | 0 | 0.0 | 0.0 | 0.02 | 0.26 | 0.00 | 90 | 1007.4 |
| 20260904221035 | 62 | 0 | 0.0 | 0.0 | 0.02 | 0.26 | 0.00 | 90 | 1007.4 |
| 20260904220534 | 62 | 0 | 0.0 | 0.0 | 0.02 | 0.26 | 0.26 | 90 | 1007.4 |
| 20260904220208 | 62 | 0 | 0.0 | 0.0 | 0.02 | 0.26 | 0.26 | 90 | 1007.2 |
| 20260904220034 | 62 | 0 | 0.0 | 0.0 | 0.02 | 0.26 | 0.26 | 90 | 1007.2 |
| 20260904215719 | 62 | 0 | 0.0 | 0.0 | 0.02 | 0.25 | 0.25 | 90 | 1007.1 |
| 20260904215534 | 62 | 0 | 0.0 | 0.0 | 0.02 | 0.25 | 0.25 | 90 | 1007.1 |
| 20260904215034 | 62 | 0 | 0.0 | 0.0 | 0.02 | 0.25 | 0.25 | 89 | 1007.1 |
| 20260904214739 | 62 | 0 | 0.0 | 0.0 | 0.02 | 0.25 | 0.25 | 89 | 1007.0 |
| 20260904214534 | 62 | 0 | 0.0 | 0.0 | 0.02 | 0.25 | 0.25 | 89 | 1007.0 |
| 20260904214034 | 62 | 0 | 0.0 | 0.0 | 0.02 | 0.25 | 0.25 | 89 | 1006.8 |
| 20260904213735 | 62 | 0 | 0.0 | 0.0 | 0.03 | 0.25 | 0.25 | 88 | 1006.7 |
| 20260904213534 | 62 | 0 | 0.0 | 0.0 | 0.03 | 0.25 | 0.25 | 88 | 1006.7 |
| 20260904213310 | 62 | 0 | 0.0 | 0.0 | 0.02 | 0.24 | 0.24 | 88 | 1006.5 |
| 20260904213035 | 62 | 0 | 0.0 | 0.0 | 0.02 | 0.24 | 0.24 | 88 | 1006.5 |
| 20260904212151 | 63 | 0 | 0.0 | 0.0 | 0.02 | 0.24 | 0.24 | 88 | 1006.5 |
| 20260904212057 | 63 | 0 | 0.0 | 0.0 | 0.02 | 0.24 | 0.24 | 88 | 1006.5 |
| 20260904211818 | 63 | 0 | 0.0 | 0.0 | 0.02 | 0.24 | 0.24 | 88 | 1006.5 |
| 20260904211557 | 63 | 0 | 0.0 | 0.0 | 0.02 | 0.24 | 0.24 | 88 | 1006.5 |
| 20260904211147 | 63 | 0 | 0.0 | 0.0 | 0.02 | 0.24 | 0.24 | 88 | 1006.4 |
| 20260904211057 | 63 | 0 | 0.0 | 0.0 | 0.02 | 0.24 | 0.24 | 88 | 1006.4 |
| 20260904210754 | 63 | 0 | 0.0 | 0.0 | 0.02 | 0.24 | 0.24 | 88 | 1006.5 |
| 20260904210557 | 63 | 0 | 0.0 | 0.0 | 0.02 | 0.24 | 0.24 | 88 | 1006.5 |
| 20260904210226 | 63 | 0 | 0.0 | 0.0 | 0.02 | 0.24 | 0.24 | 89 | 1006.4 |
| 20260904210057 | 63 | 0 | 0.0 | 0.0 | 0.02 | 0.24 | 0.24 | 89 | 1006.4 |
| 20260904205711 | 63 | 0 | 0.0 | 0.0 | 0.02 | 0.23 | 0.23 | 89 | 1006.0 |
| 20260904205557 | 63 | 0 | 0.0 | 0.0 | 0.02 | 0.23 | 0.23 | 89 | 1006.0 |
| 20260904205057 | 63 | 0 | 0.0 | 0.0 | 0.02 | 0.23 | 0.23 | 89 | 1005.9 |
| 20260904204722 | 64 | 0 | 0.0 | 0.0 | 0.02 | 0.23 | 0.23 | 89 | 1006.0 |
| 20260904204557 | 64 | 0 | 0.0 | 0.0 | 0.02 | 0.23 | 0.23 | 89 | 1006.0 |
| 20260904204142 | 64 | 0 | 0.0 | 0.0 | 0.02 | 0.23 | 0.23 | 89 | 1005.7 |
| 20260904204057 | 64 | 0 | 0.0 | 0.0 | 0.02 | 0.23 | 0.23 | 89 | 1005.7 |
| 20260904203557 | 64 | 0 | 0.0 | 0.0 | 0.03 | 0.23 | 0.23 | 89 | 1005.9 |
| 20260904203057 | 64 | 0 | 0.0 | 0.0 | 0.02 | 0.22 | 0.22 | 89 | 1005.8 |
| 20260904202230 | 65 | 0 | 0.0 | 0.0 | 0.02 | 0.22 | 0.22 | 90 | 1006.0 |
| 20260904202139 | 65 | 0 | 0.0 | 0.0 | 0.02 | 0.22 | 0.22 | 90 | 1006.0 |
| 20260904201803 | 65 | 0 | 0.0 | 0.0 | 0.02 | 0.22 | 0.22 | 91 | 1006.4 |
| 20260904201639 | 65 | 0 | 0.0 | 0.0 | 0.02 | 0.22 | 0.22 | 91 | 1006.4 |
| 20260904201215 | 65 | 0 | 0.0 | 0.0 | 0.02 | 0.22 | 0.22 | 92 | 1006.3 |
| 20260904201139 | 65 | 0 | 0.0 | 0.0 | 0.02 | 0.22 | 0.22 | 92 | 1006.3 |
| 20260904200755 | 65 | 0 | 0.0 | 0.0 | 0.03 | 0.22 | 0.22 | 93 | 1006.2 |
| 20260904200639 | 65 | 0 | 0.0 | 0.0 | 0.03 | 0.22 | 0.22 | 93 | 1006.2 |
| 20260904200252 | 65 | 0 | 0.0 | 0.0 | 0.03 | 0.22 | 0.22 | 93 | 1006.0 |
| 20260904200139 | 65 | 0 | 0.0 | 0.0 | 0.03 | 0.22 | 0.22 | 93 | 1006.0 |
| 20260904195839 | 65 | 0 | 0.0 | 0.0 | 0.02 | 0.21 | 0.21 | 94 | 1005.9 |
| 20260904195639 | 65 | 0 | 0.0 | 0.0 | 0.02 | 0.21 | 0.21 | 94 | 1005.9 |
| 20260904195320 | 65 | 0 | 0.0 | 0.0 | 0.03 | 0.21 | 0.21 | 94 | 1005.9 |
| 20260904195139 | 65 | 0 | 0.0 | 0.0 | 0.03 | 0.21 | 0.21 | 94 | 1005.9 |
| 20260904194800 | 65 | 0 | 0.0 | 0.0 | 0.03 | 0.21 | 0.21 | 94 | 1005.9 |
| 20260904194639 | 65 | 0 | 0.0 | 0.0 | 0.03 | 0.21 | 0.21 | 94 | 1005.9 |
| 20260904194238 | 66 | 0 | 0.0 | 0.0 | 0.04 | 0.21 | 0.21 | 94 | 1005.9 |
| 20260904194139 | 66 | 0 | 0.0 | 0.0 | 0.04 | 0.21 | 0.21 | 94 | 1005.9 |
| 20260904193239 | 66 | 0 | 0.0 | 0.0 | 0.04 | 0.20 | 0.20 | 95 | 1005.6 |
| 20260904193139 | 66 | 0 | 0.0 | 0.0 | 0.04 | 0.20 | 0.20 | 95 | 1005.6 |
| 20260904192808 | 66 | 0 | 0.0 | 0.0 | 0.04 | 0.20 | 0.20 | 95 | 1005.5 |
| 20260904192639 | 66 | 0 | 0.0 | 0.0 | 0.04 | 0.20 | 0.20 | 95 | 1005.5 |
| 20260904192306 | 66 | 0 | 0.0 | 0.0 | 0.05 | 0.20 | 0.20 | 95 | 1006.0 |
| 20260904192139 | 66 | 0 | 0.0 | 0.0 | 0.05 | 0.20 | 0.20 | 95 | 1006.0 |
| 20260904191858 | 66 | 0 | 0.0 | 0.0 | 0.05 | 0.20 | 0.20 | 95 | 1006.0 |
| 20260904191640 | 66 | 0 | 0.0 | 0.0 | 0.05 | 0.20 | 0.20 | 95 | 1006.0 |
| 20260904191140 | 66 | 0 | 0.0 | 0.0 | 0.06 | 0.20 | 0.20 | 94 | 1005.9 |
| 20260904190904 | 66 | 0 | 0.0 | 0.0 | 0.05 | 0.19 | 0.19 | 94 | 1006.1 |
| 20260904190639 | 66 | 0 | 0.0 | 0.0 | 0.05 | 0.19 | 0.19 | 94 | 1006.1 |
| 20260904190306 | 66 | 0 | 0.0 | 0.0 | 0.06 | 0.19 | 0.19 | 94 | 1006.1 |
| 20260904190139 | 66 | 0 | 0.0 | 0.0 | 0.06 | 0.19 | 0.19 | 94 | 1006.1 |
| 20260904185720 | 66 | 0 | 0.0 | 0.0 | 0.07 | 0.19 | 0.19 | 94 | 1006.1 |
| 20260904185639 | 66 | 0 | 0.0 | 0.0 | 0.07 | 0.19 | 0.19 | 94 | 1006.1 |
| 20260904185250 | 66 | 0 | 0.0 | 0.0 | 0.07 | 0.18 | 0.18 | 94 | 1006.1 |
| 20260904185139 | 66 | 0 | 0.0 | 0.0 | 0.07 | 0.18 | 0.18 | 94 | 1006.1 |
| 20260904183529 | 66 | 0 | 0.0 | 0.0 | 0.09 | 0.17 | 0.17 | 93 | 1005.5 |
| 20260904183429 | 66 | 0 | 0.0 | 0.0 | 0.09 | 0.17 | 0.17 | 93 | 1005.5 |
| 20260904183022 | 66 | 0 | 0.0 | 0.0 | 0.08 | 0.16 | 0.16 | 93 | 1005.6 |
| 20260904182929 | 66 | 0 | 0.0 | 0.0 | 0.08 | 0.16 | 0.16 | 93 | 1005.6 |
| 20260904182112 | 66 | 0 | 0.0 | 0.0 | 0.09 | 0.15 | 0.15 | 93 | 1005.5 |
| 20260904181930 | 66 | 0 | 0.0 | 0.0 | 0.09 | 0.15 | 0.15 | 93 | 1005.5 |
| 20260904181513 | 66 | 0 | 0.0 | 0.0 | 0.11 | 0.15 | 0.15 | 93 | 1005.3 |
| 20260904181429 | 66 | 0 | 0.0 | 0.0 | 0.11 | 0.15 | 0.15 | 93 | 1005.3 |
| 20260904180538 | 66 | 0 | 0.0 | 0.0 | 0.12 | 0.14 | 0.14 | 93 | 1005.0 |
| 20260904180428 | 66 | 0 | 0.0 | 0.0 | 0.12 | 0.14 | 0.14 | 93 | 1005.0 |
| 20260904180116 | 66 | 0 | 0.0 | 0.0 | 0.13 | 0.13 | 0.13 | 93 | 1004.9 |
| 20260904175929 | 66 | 0 | 0.0 | 0.0 | 0.13 | 0.13 | 0.13 | 93 | 1004.9 |
| 20260904175523 | 66 | 0 | 0.0 | 0.0 | 0.12 | 0.12 | 0.12 | 94 | 1005.0 |
| 20260904175414 | 66 | 0 | 0.0 | 0.0 | 0.12 | 0.12 | 0.12 | 94 | 1005.0 |
| 20260904175043 | 66 | 0 | 0.0 | 0.0 | 0.11 | 0.11 | 0.11 | 94 | 1004.9 |
| 20260904174914 | 66 | 0 | 0.0 | 0.0 | 0.11 | 0.11 | 0.11 | 94 | 1004.9 |
| 20260904174550 | 67 | 0 | 0.0 | 0.0 | 0.10 | 0.10 | 0.10 | 94 | 1004.9 |
| 20260904174414 | 67 | 0 | 0.0 | 0.0 | 0.10 | 0.10 | 0.10 | 94 | 1004.9 |
| 20260904173914 | 67 | 0 | 0.0 | 0.0 | 0.10 | 0.10 | 0.10 | 94 | 1004.8 |
| 20260904173518 | 67 | 0 | 0.0 | 0.0 | 0.08 | 0.08 | 0.08 | 94 | 1004.9 |
| 20260904173414 | 67 | 0 | 0.0 | 0.0 | 0.08 | 0.08 | 0.08 | 94 | 1004.9 |
| 20260904173035 | 67 | 0 | 0.0 | 0.0 | 0.08 | 0.08 | 0.08 | 93 | 1004.9 |
| 20260904172914 | 67 | 0 | 0.0 | 0.0 | 0.08 | 0.08 | 0.08 | 93 | 1004.9 |
| 20260904172621 | 68 | 0 | 0.0 | 0.0 | 0.07 | 0.07 | 0.07 | 92 | 1004.9 |
| 20260904172414 | 68 | 0 | 0.0 | 0.0 | 0.07 | 0.07 | 0.07 | 92 | 1004.9 |
| 20260904172012 | 68 | 0 | 0.0 | 0.0 | 0.06 | 0.06 | 0.06 | 92 | 1004.8 |
| 20260904171914 | 68 | 0 | 0.0 | 0.0 | 0.06 | 0.06 | 0.06 | 92 | 1004.8 |
| 20260904171515 | 68 | 0 | 0.0 | 0.0 | 0.04 | 0.04 | 0.04 | 90 | 1004.4 |
| 20260904171414 | 68 | 0 | 0.0 | 0.0 | 0.04 | 0.04 | 0.04 | 90 | 1004.4 |
| 20260904170521 | 71 | 0 | 0.0 | 0.0 | 0.02 | 0.02 | 0.02 | 83 | 1004.5 |
| 20260904170418 | 71 | 0 | 0.0 | 0.0 | 0.02 | 0.02 | 0.02 | 83 | 1004.5 |
| 20260904170040 | 74 | 0 | 0.0 | 0.0 | 0.00 | 0.00 | 0.00 | 77 | 1004.4 |
| 20260904165918 | 74 | 0 | 0.0 | 0.0 | 0.00 | 0.00 | 0.00 | 77 | 1004.4 |
| 20260904165529 | 75 | 0 | 0.0 | 0.0 | 0.00 | 0.00 | 0.00 | 73 | 1003.2 |
| 20260904165418 | 75 | 0 | 0.0 | 0.0 | 0.00 | 0.00 | 0.00 | 73 | 1003.2 |
| 20260904165030 | 76 | 0 | 0.0 | 0.0 | 0.00 | 0.00 | 0.00 | 71 | 1003.0 |
| 20260904164918 | 76 | 0 | 0.0 | 0.0 | 0.00 | 0.00 | 0.00 | 71 | 1003.0 |
| 20260904164516 | 76 | 0 | 0.0 | 0.0 | 0.00 | 0.00 | 0.00 | 69 | 1003.0 |
| 20260904164419 | 76 | 0 | 0.0 | 0.0 | 0.00 | 0.00 | 0.00 | 69 | 1003.0 |
| 20260904163455 | 76 | 0 | 0.0 | 0.0 | 0.00 | 0.00 | 0.00 | 68 | 1003.0 |
| 20260904163418 | 76 | 0 | 0.0 | 0.0 | 0.00 | 0.00 | 0.00 | 68 | 1003.0 |
| 20260904163034 | 76 | 0 | 0.0 | 0.0 | 0.00 | 0.00 | 0.00 | 68 | 1003.1 |
| 20260904162918 | 76 | 0 | 0.0 | 0.0 | 0.00 | 0.00 | 0.00 | 68 | 1003.1 |
| 20260904162101 | 76 | 0 | 0.0 | 0.0 | 0.00 | 0.00 | 0.00 | 68 | 1003.0 |
| 20260904161950 | 76 | 0 | 0.0 | 0.0 | 0.00 | 0.00 | 0.00 | 68 | 1003.0 |
| 20260904161556 | 76 | 0 | 0.0 | 0.0 | 0.00 | 0.00 | 0.00 | 68 | 1003.1 |
| 20260904161450 | 76 | 0 | 0.0 | 0.0 | 0.00 | 0.00 | 0.00 | 68 | 1003.1 |
| 20260904161030 | 76 | 0 | 0.0 | 0.0 | 0.00 | 0.00 | 0.00 | 68 | 1003.0 |
| 20260904160951 | 76 | 0 | 0.0 | 0.0 | 0.00 | 0.00 | 0.00 | 68 | 1003.0 |
| 20260904160540 | 76 | 0 | 0.0 | 0.0 | 0.00 | 0.00 | 0.00 | 68 | 1003.2 |
| 20260904160450 | 76 | 0 | 0.0 | 0.0 | 0.00 | 0.00 | 0.00 | 68 | 1003.2 |
| 20260904160059 | 76 | 0 | 0.0 | 0.0 | 0.00 | 0.00 | 0.00 | 68 | 1003.3 |
| 20260904155950 | 76 | 0 | 0.0 | 0.0 | 0.00 | 0.00 | 0.00 | 68 | 1003.3 |
| 20260904155626 | 76 | 0 | 0.0 | 0.0 | 0.00 | 0.00 | 0.00 | 68 | 1003.3 |
| 20260904155450 | 76 | 0 | 0.0 | 0.0 | 0.00 | 0.00 | 0.00 | 68 | 1003.3 |
| 20260904155036 | 77 | 0 | 0.0 | 0.0 | 0.00 | 0.00 | 0.00 | 68 | 1003.3 |
| 20260904154951 | 77 | 0 | 0.0 | 0.0 | 0.00 | 0.00 | 0.00 | 68 | 1003.3 |
| 20260904154634 | 77 | 0 | 0.0 | 0.0 | 0.00 | 0.00 | 0.00 | 68 | 1003.5 |
| 20260904154451 | 77 | 0 | 0.0 | 0.0 | 0.00 | 0.00 | 0.00 | 68 | 1003.5 |
| 20260904154108 | 76 | 0 | 0.0 | 0.0 | 0.00 | 0.00 | 0.00 | 68 | 1003.6 |
| 20260904153951 | 76 | 0 | 0.0 | 0.0 | 0.00 | 0.00 | 0.00 | 68 | 1003.6 |
| 20260904153559 | 76 | 0 | 0.0 | 0.0 | 0.00 | 0.00 | 0.00 | 69 | 1003.7 |
| 20260904153450 | 76 | 0 | 0.0 | 0.0 | 0.00 | 0.00 | 0.00 | 69 | 1003.7 |
| 20260904153114 | 76 | 0 | 0.0 | 0.0 | 0.00 | 0.00 | 0.00 | 68 | 1003.6 |
| 20260904152952 | 76 | 0 | 0.0 | 0.0 | 0.00 | 0.00 | 0.00 | 68 | 1003.6 |
| 20260904152607 | 76 | 0 | 0.0 | 0.0 | 0.00 | 0.00 | 0.00 | 68 | 1003.9 |
| 20260904152450 | 76 | 0 | 0.0 | 0.0 | 0.00 | 0.00 | 0.00 | 68 | 1003.9 |
| 20260904152112 | 76 | 0 | 0.0 | 0.0 | 0.00 | 0.00 | 0.00 | 68 | 1003.9 |
| 20260904151950 | 76 | 0 | 0.0 | 0.0 | 0.00 | 0.00 | 0.00 | 68 | 1003.9 |
| 20260904151608 | 76 | 0 | 0.0 | 0.0 | 0.00 | 0.00 | 0.00 | 68 | 1003.9 |
| 20260904151450 | 76 | 0 | 0.0 | 0.0 | 0.00 | 0.00 | 0.00 | 68 | 1003.9 |
| 20260904151043 | 76 | 0 | 0.0 | 0.0 | 0.00 | 0.00 | 0.00 | 68 | 1004.0 |
| 20260904150951 | 76 | 0 | 0.0 | 0.0 | 0.00 | 0.00 | 0.00 | 68 | 1004.0 |
| 20260904150619 | 76 | 0 | 0.0 | 0.0 | 0.00 | 0.00 | 0.00 | 68 | 1004.1 |
| 20260904150450 | 76 | 0 | 0.0 | 0.0 | 0.00 | 0.00 | 0.00 | 68 | 1004.1 |
| 20260904150129 | 76 | 0 | 0.0 | 0.0 | 0.00 | 0.00 | 0.00 | 68 | 1003.9 |
| 20260904145951 | 76 | 0 | 0.0 | 0.0 | 0.00 | 0.00 | 0.00 | 68 | 1003.9 |
| 20260904145708 | 76 | 0 | 0.0 | 0.0 | 0.00 | 0.00 | 0.00 | 68 | 1004.1 |
| 20260904145450 | 76 | 0 | 0.0 | 0.0 | 0.00 | 0.00 | 0.00 | 68 | 1004.1 |
| 20260904145038 | 76 | 0 | 0.0 | 0.0 | 0.00 | 0.00 | 0.00 | 68 | 1004.2 |
| 20260904144951 | 76 | 0 | 0.0 | 0.0 | 0.00 | 0.00 | 0.00 | 68 | 1004.2 |
| 20260904144559 | 76 | 0 | 0.0 | 0.0 | 0.00 | 0.00 | 0.00 | 68 | 1004.3 |
| 20260904144450 | 76 | 0 | 0.0 | 0.0 | 0.00 | 0.00 | 0.00 | 68 | 1004.3 |
| 20260904143900 | 76 | 0 | 0.0 | 0.0 | 0.00 | 0.00 | 0.00 | 68 | 1004.5 |
| 20260904143730 | 76 | 0 | 0.0 | 0.0 | 0.00 | 0.00 | 0.00 | 68 | 1004.5 |
| 20260904143328 | 76 | 0 | 0.0 | 0.0 | 0.00 | 0.00 | 0.00 | 67 | 1004.6 |
| 20260904143230 | 76 | 0 | 0.0 | 0.0 | 0.00 | 0.00 | 0.00 | 67 | 1004.6 |
| 20260904142914 | 76 | 0 | 0.0 | 0.0 | 0.00 | 0.00 | 0.00 | 67 | 1004.7 |
| 20260904142730 | 76 | 0 | 0.0 | 0.0 | 0.00 | 0.00 | 0.00 | 67 | 1004.7 |
| 20260904142306 | 76 | 0 | 0.0 | 0.0 | 0.00 | 0.00 | 0.00 | 68 | 1004.7 |
| 20260904142230 | 76 | 0 | 0.0 | 0.0 | 0.00 | 0.00 | 0.00 | 68 | 1004.7 |
| 20260904141858 | 76 | 0 | 0.0 | 0.0 | 0.00 | 0.00 | 0.00 | 68 | 1004.9 |
| 20260904141730 | 76 | 0 | 0.0 | 0.0 | 0.00 | 0.00 | 0.00 | 68 | 1004.9 |
| 20260904141230 | 76 | 0 | 0.0 | 0.0 | 0.00 | 0.00 | 0.00 | 68 | 1004.9 |